createdAt,value
2022-11-21T00:00:30.640Z,12.633333
2022-11-21T00:05:21.817Z,12.700000
2022-11-21T00:10:24.989Z,12.745455
2022-11-21T00:15:30.641Z,12.800000
2022-11-21T00:20:18.991Z,12.880000
2022-11-21T00:25:22.197Z,12.930769
2022-11-21T00:30:25.488Z,13.000000
2022-11-21T00:35:18.998Z,13.000000
2022-11-21T00:40:19.441Z,13.000000
2022-11-21T00:45:24.016Z,13.000000
2022-11-21T00:50:19.017Z,13.100000
2022-11-21T00:55:19.003Z,13.190000
2022-11-21T01:00:19.783Z,13.200000
2022-11-21T01:05:19.285Z,13.200000
2022-11-21T01:10:19.019Z,13.190000
2022-11-21T01:15:18.932Z,13.138462
2022-11-21T01:20:20.618Z,13.200000
2022-11-21T01:25:19.013Z,13.200000
2022-11-21T01:30:19.019Z,13.150000
2022-11-21T01:35:19.076Z,13.100000
2022-11-21T01:40:21.042Z,13.070000
2022-11-21T01:45:24.188Z,13.136364
2022-11-21T01:50:18.949Z,13.330000
2022-11-21T01:55:19.031Z,13.566667
2022-11-21T02:00:21.411Z,13.780000
2022-11-21T02:05:19.013Z,14.000000
2022-11-21T02:10:19.018Z,14.233333
2022-11-21T02:15:19.024Z,14.518182
2022-11-21T02:20:19.012Z,14.827273
2022-11-21T02:25:19.286Z,15.058333
2022-11-21T02:30:19.195Z,15.250000
2022-11-21T02:35:19.547Z,15.444444
2022-11-21T02:40:19.432Z,15.500000
2022-11-21T02:45:19.471Z,15.583333
2022-11-21T02:50:19.619Z,15.600000
2022-11-21T02:55:19.895Z,15.675000
2022-11-21T03:00:23.129Z,15.700000
2022-11-21T03:05:19.706Z,15.783333
2022-11-21T03:10:19.491Z,15.875000
2022-11-21T03:15:20.372Z,15.915385
2022-11-21T03:20:23.963Z,16.012500
2022-11-21T03:25:20.144Z,16.207692
2022-11-21T03:30:19.432Z,16.454545
2022-11-21T03:35:21.475Z,16.711111
2022-11-21T03:40:19.399Z,16.800000
2022-11-21T03:45:19.481Z,16.766667
2022-11-21T03:50:19.483Z,16.633333
2022-11-21T03:55:21.667Z,16.453846
2022-11-21T04:00:24.771Z,16.310000
2022-11-21T04:05:19.452Z,16.115385
2022-11-21T04:10:19.722Z,15.909091
2022-11-21T04:15:22.130Z,15.718182
2022-11-21T04:20:19.497Z,15.700000
2022-11-21T04:25:19.405Z,15.636364
2022-11-21T04:30:20.165Z,15.570000
2022-11-21T04:35:22.545Z,15.500000
2022-11-21T04:40:19.497Z,15.600000
2022-11-21T04:45:19.520Z,15.754545
2022-11-21T04:50:19.719Z,15.960000
2022-11-21T04:55:19.773Z,16.210000
2022-11-21T05:00:23.909Z,16.380000
2022-11-21T05:05:19.471Z,16.500000
2022-11-21T05:10:20.328Z,16.500000
2022-11-21T05:15:24.409Z,16.500000
2022-11-21T05:20:19.557Z,16.500000
2022-11-21T05:25:19.396Z,16.500000
2022-11-21T05:30:20.880Z,16.500000
2022-11-21T05:35:23.737Z,16.500000
2022-11-21T05:40:19.449Z,16.500000
2022-11-21T05:45:19.534Z,16.500000
2022-11-21T05:50:21.040Z,16.430000
2022-11-21T05:55:24.300Z,16.400000
2022-11-21T06:00:19.566Z,16.300000
2022-11-21T06:05:19.575Z,16.245455
2022-11-21T06:10:21.526Z,16.163636
2022-11-21T06:15:19.464Z,16.100000
2022-11-21T06:20:19.554Z,16.100000
2022-11-21T06:25:19.377Z,16.138462
2022-11-21T06:30:22.545Z,16.330000
2022-11-21T06:35:19.596Z,16.460000
2022-11-21T06:40:19.701Z,16.580000
2022-11-21T06:45:19.548Z,16.600000
2022-11-21T06:50:19.528Z,16.530000
2022-11-21T06:55:19.397Z,16.350000
2022-11-21T07:00:19.417Z,16.054545
2022-11-21T07:05:19.944Z,15.840000
2022-11-21T07:10:19.465Z,15.720000
2022-11-21T07:15:19.736Z,15.800000
2022-11-21T07:20:19.559Z,15.800000
2022-11-21T07:25:20.670Z,15.715385
2022-11-21T07:30:19.403Z,15.636364
2022-11-21T07:35:19.429Z,15.572727
2022-11-21T07:40:19.578Z,15.500000
2022-11-21T07:45:21.043Z,15.409091
2022-11-21T07:50:19.488Z,15.310000
2022-11-21T07:55:27.606Z,15.291667
2022-11-21T08:00:19.428Z,15.200000
2022-11-21T08:05:21.475Z,15.136364
2022-11-21T08:10:19.498Z,15.100000
2022-11-21T08:15:19.507Z,15.100000
2022-11-21T08:20:19.579Z,15.100000
2022-11-21T08:25:21.912Z,15.100000
2022-11-21T08:30:19.456Z,15.100000
2022-11-21T08:35:20.594Z,15.023077
2022-11-21T08:40:19.894Z,15.062500
2022-11-21T08:45:22.359Z,15.166667
2022-11-21T08:50:19.899Z,15.311111
2022-11-21T08:55:19.980Z,15.463636
2022-11-21T09:00:19.581Z,15.618182
2022-11-21T09:05:22.915Z,15.816667
2022-11-21T09:10:19.879Z,15.988889
2022-11-21T09:15:20.181Z,16.100000
2022-11-21T09:20:20.539Z,16.172727
2022-11-21T09:25:20.018Z,16.100000
2022-11-21T09:30:19.918Z,16.130000
2022-11-21T09:35:19.983Z,16.280000
2022-11-21T09:40:21.136Z,16.610000
2022-11-21T09:45:23.955Z,16.900000
2022-11-21T09:50:19.882Z,17.087500
2022-11-21T09:55:31.985Z,17.191667
2022-11-21T10:00:21.216Z,17.250000
2022-11-21T10:05:19.989Z,17.250000
2022-11-21T10:10:19.999Z,17.109091
2022-11-21T10:15:20.190Z,17.025000
2022-11-21T10:20:21.698Z,16.983333
2022-11-21T10:25:25.460Z,16.777778
2022-11-21T10:30:28.827Z,16.445455
2022-11-21T10:35:20.461Z,16.241667
2022-11-21T10:40:22.154Z,16.290000
2022-11-21T10:45:25.254Z,16.408333
2022-11-21T10:50:20.276Z,16.560000
2022-11-21T10:55:20.299Z,16.581818
2022-11-21T11:00:22.785Z,16.450000
2022-11-21T11:05:20.392Z,16.208333
2022-11-21T11:10:22.976Z,15.981818
2022-11-21T11:15:20.371Z,15.818182
2022-11-21T11:20:23.170Z,15.700000
2022-11-21T11:25:22.440Z,15.709091
2022-11-21T11:30:29.326Z,15.800000
2022-11-21T11:35:20.712Z,15.838462
2022-11-21T11:40:23.465Z,15.900000
2022-11-21T11:45:20.867Z,15.840000
2022-11-21T11:50:29.795Z,15.775000
2022-11-21T11:55:20.692Z,15.661538
2022-11-21T12:00:20.796Z,15.550000
2022-11-21T12:05:20.761Z,15.469231
2022-11-21T12:10:20.750Z,15.400000
2022-11-21T12:15:21.190Z,15.409091
2022-11-21T12:20:21.060Z,15.541667
2022-11-21T12:25:20.806Z,15.600000
2022-11-21T12:30:20.795Z,15.566667
2022-11-21T12:35:22.071Z,15.500000
2022-11-21T12:40:25.378Z,15.500000
2022-11-21T12:45:20.742Z,15.500000
2022-11-21T12:50:19.229Z,15.500000
2022-11-21T12:55:22.478Z,15.436364
2022-11-21T13:00:20.929Z,14.941667
2022-11-21T13:05:20.694Z,14.190000
2022-11-21T13:10:20.746Z,13.590000
2022-11-21T13:15:22.805Z,13.390000
2022-11-21T13:20:26.237Z,13.300000
2022-11-21T13:25:20.802Z,13.169231
2022-11-21T13:30:20.810Z,13.054545
2022-11-21T13:35:23.497Z,13.000000
2022-11-21T13:40:20.769Z,12.900000
2022-11-21T13:45:29.714Z,12.900000
2022-11-21T13:50:20.671Z,12.900000
2022-11-21T13:55:23.793Z,12.900000
2022-11-21T14:00:21.170Z,12.900000
2022-11-21T14:05:20.732Z,12.815385
2022-11-21T14:10:21.152Z,12.800000
2022-11-21T14:15:20.798Z,12.722222
2022-11-21T14:20:20.888Z,12.633333
2022-11-21T14:25:32.890Z,12.581818
2022-11-21T14:30:21.586Z,12.500000
2022-11-21T14:35:20.721Z,12.500000
2022-11-21T14:40:20.826Z,12.500000
2022-11-21T14:45:20.791Z,12.500000
2022-11-21T14:50:21.997Z,12.500000
2022-11-21T14:55:30.306Z,12.500000
2022-11-21T15:00:51.299Z,12.500000
2022-11-21T15:05:40.246Z,12.500000
2022-11-21T15:10:29.067Z,12.400000
2022-11-21T15:15:20.784Z,12.400000
2022-11-21T15:20:20.826Z,12.333333
2022-11-21T15:25:21.086Z,12.280000
2022-11-21T15:30:23.192Z,12.200000
2022-11-21T15:35:21.211Z,12.118182
2022-11-21T15:40:21.261Z,12.036364
2022-11-21T15:45:20.813Z,12.000000
2022-11-21T15:50:23.596Z,11.909091
2022-11-21T15:55:21.203Z,11.841667
2022-11-21T16:00:21.279Z,11.727273
2022-11-21T16:05:20.716Z,11.590909
2022-11-21T16:10:27.796Z,11.471429
2022-11-21T16:15:21.279Z,11.400000
2022-11-21T16:20:21.231Z,11.300000
2022-11-21T16:25:33.366Z,11.209091
2022-11-21T16:30:21.184Z,11.100000
2022-11-21T16:35:21.201Z,11.100000
2022-11-21T16:40:22.090Z,11.100000
2022-11-21T16:45:21.807Z,11.081818
2022-11-21T16:50:21.362Z,10.990000
2022-11-21T16:55:21.122Z,10.860000
2022-11-21T17:00:21.230Z,10.675000
2022-11-21T17:05:22.043Z,10.445455
2022-11-21T17:10:21.550Z,10.300000
2022-11-21T17:15:21.279Z,10.200000
2022-11-21T17:20:21.304Z,10.150000
2022-11-21T17:25:22.779Z,10.100000
2022-11-21T17:30:21.174Z,10.008333
2022-11-21T17:35:21.722Z,9.950000
2022-11-21T17:40:21.700Z,9.875000
2022-11-21T17:45:23.219Z,9.800000
2022-11-21T17:50:21.710Z,9.711111
2022-11-21T17:55:22.021Z,9.612500
2022-11-21T18:00:21.730Z,9.508333
2022-11-21T18:05:23.534Z,9.466667
2022-11-21T18:10:42.087Z,9.388889
2022-11-21T18:15:21.669Z,9.300000
2022-11-21T18:20:21.747Z,9.300000
2022-11-21T18:25:24.439Z,9.254545
2022-11-21T18:30:21.817Z,9.200000
2022-11-21T18:35:21.789Z,9.116667
2022-11-21T18:40:22.763Z,9.080000
2022-11-21T18:45:22.036Z,9.000000
2022-11-21T18:50:21.871Z,8.960000
2022-11-21T18:55:19.017Z,8.900000
2022-11-21T19:00:22.215Z,8.900000
2022-11-21T19:05:21.780Z,8.900000
2022-11-21T19:10:42.581Z,8.900000
2022-11-21T19:15:21.927Z,8.975000
2022-11-21T19:20:22.869Z,9.000000
2022-11-21T19:25:22.168Z,9.000000
2022-11-21T19:30:21.712Z,9.000000
2022-11-21T19:35:21.913Z,9.000000
2022-11-21T19:40:23.180Z,9.000000
2022-11-21T19:45:21.940Z,9.000000
2022-11-21T19:50:21.959Z,9.000000
2022-11-21T19:55:21.985Z,9.000000
2022-11-21T20:00:23.672Z,9.000000
2022-11-21T20:05:21.899Z,8.980000
2022-11-21T20:10:22.218Z,8.900000
2022-11-21T20:15:22.015Z,8.900000
2022-11-21T20:20:24.549Z,8.800000
2022-11-21T20:25:22.012Z,8.800000
2022-11-21T20:30:31.479Z,8.758333
2022-11-21T20:35:37.785Z,8.700000
2022-11-21T20:40:25.020Z,8.700000
2022-11-21T20:46:15.518Z,8.700000
2022-11-21T20:50:40.174Z,8.675000
2022-11-21T20:55:22.706Z,8.600000
2022-11-21T21:00:25.346Z,8.600000
2022-11-21T21:05:22.270Z,8.600000
2022-11-21T21:10:22.386Z,8.562500
2022-11-21T21:15:22.769Z,8.400000
2022-11-21T21:20:26.115Z,8.260000
2022-11-21T21:25:22.367Z,8.153846
2022-11-21T21:30:22.375Z,8.100000
2022-11-21T21:35:23.401Z,8.100000
2022-11-21T21:40:22.708Z,8.100000
2022-11-21T21:45:22.971Z,8.010000
2022-11-21T21:50:22.765Z,8.000000
2022-11-21T21:55:23.788Z,8.000000
2022-11-21T22:00:22.789Z,8.000000
2022-11-21T22:05:22.813Z,8.000000
2022-11-21T22:10:21.097Z,8.000000
2022-11-21T22:15:24.368Z,7.909091
2022-11-21T22:20:22.750Z,7.900000
2022-11-21T22:25:23.006Z,7.808333
2022-11-21T22:30:22.774Z,7.740000
2022-11-21T22:35:24.992Z,7.636364
2022-11-21T22:40:23.062Z,7.566667
2022-11-21T22:45:19.149Z,7.458333
2022-11-21T22:50:23.144Z,7.400000
2022-11-21T22:55:25.450Z,7.350000
2022-11-21T23:00:23.284Z,7.300000
2022-11-21T23:05:19.809Z,7.300000
2022-11-21T23:10:23.373Z,7.281818
2022-11-21T23:15:25.749Z,7.200000
2022-11-21T23:20:23.105Z,7.200000
2022-11-21T23:25:23.192Z,7.110000
2022-11-21T23:30:23.502Z,7.012500
2022-11-21T23:35:23.675Z,6.925000
2022-11-21T23:40:23.563Z,6.830000
2022-11-21T23:45:23.509Z,6.800000
2022-11-21T23:50:24.037Z,6.700000
2022-11-21T23:55:23.787Z,6.680000
